THYEMN LTAC-LTAJ
Flight info
| Callsign | THYEMN |
|---|---|
| Flight time | 0h 56m |
| Altitude | 35000 |
| Route | BALA1D BALAX UA17 BELSU UL605 RATSI UA17 REMPO L605 ASBOM UA17 BOYAT BOYA1E |
| Aircraft | B738/M-SDE2E3FGHIRWXY/LB1 |
Departure
| Time | 2026-04-21 12:50 |
|---|---|
| Airport | Esenboğa International Airport (LTAC) |
Arrival
| Time | 2026-04-21 13:47 |
|---|---|
| Airport | Gaziantep Oğuzeli International Airport (LTAJ) |
| Time | Latitude | Longitude | Altitude | Speed | Heading |
|---|---|---|---|---|---|
| 2026-04-21 12:09 | 40.11584 | 32.99070 | 3128 ft | 0 kts | 143° |
| 2026-04-21 12:27 | 40.11589 | 32.99065 | 3127 ft | 4 kts | 143° |
| 2026-04-21 12:27 | 40.11611 | 32.99043 | 3127 ft | 0 kts | 143° |
| 2026-04-21 12:27 | 40.11612 | 32.99043 | 3127 ft | 0 kts | 143° |
| 2026-04-21 12:27 | 40.11613 | 32.99042 | 3127 ft | 0 kts | 143° |
| 2026-04-21 12:28 | 40.11614 | 32.99041 | 3127 ft | 0 kts | 143° |
| 2026-04-21 12:28 | 40.11615 | 32.99040 | 3127 ft | 0 kts | 143° |
| 2026-04-21 12:28 | 40.11616 | 32.99039 | 3127 ft | 0 kts | 143° |
| 2026-04-21 12:28 | 40.11617 | 32.99038 | 3127 ft | 0 kts | 143° |
| 2026-04-21 12:29 | 40.11617 | 32.99037 | 3127 ft | 0 kts | 143° |
| 2026-04-21 12:29 | 40.11618 | 32.99036 | 3127 ft | 0 kts | 143° |
| 2026-04-21 12:29 | 40.11619 | 32.99036 | 3127 ft | 0 kts | 143° |
| 2026-04-21 12:29 | 40.11620 | 32.99035 | 3127 ft | 0 kts | 143° |
| 2026-04-21 12:30 | 40.11621 | 32.99034 | 3127 ft | 0 kts | 143° |
| 2026-04-21 12:30 | 40.11622 | 32.99033 | 3127 ft | 0 kts | 143° |
| 2026-04-21 12:30 | 40.11623 | 32.99032 | 3127 ft | 0 kts | 143° |
| 2026-04-21 12:30 | 40.11624 | 32.99031 | 3127 ft | 0 kts | 143° |
| 2026-04-21 12:31 | 40.11624 | 32.99030 | 3127 ft | 0 kts | 143° |
| 2026-04-21 12:31 | 40.11625 | 32.99030 | 3127 ft | 0 kts | 143° |
| 2026-04-21 12:31 | 40.11626 | 32.99029 | 3127 ft | 0 kts | 143° |
| 2026-04-21 12:31 | 40.11627 | 32.99028 | 3127 ft | 0 kts | 143° |
| 2026-04-21 12:32 | 40.11628 | 32.99027 | 3127 ft | 0 kts | 143° |
| 2026-04-21 12:32 | 40.11629 | 32.99026 | 3126 ft | 0 kts | 143° |
| 2026-04-21 12:32 | 40.11630 | 32.99025 | 3126 ft | 0 kts | 143° |
| 2026-04-21 12:32 | 40.11631 | 32.99025 | 3126 ft | 0 kts | 143° |
| 2026-04-21 12:33 | 40.11631 | 32.99023 | 3126 ft | 0 kts | 143° |
| 2026-04-21 12:33 | 40.11633 | 32.99023 | 3126 ft | 0 kts | 143° |
| 2026-04-21 12:33 | 40.11633 | 32.99022 | 3126 ft | 0 kts | 143° |
| 2026-04-21 12:33 | 40.11634 | 32.99021 | 3126 ft | 0 kts | 143° |
| 2026-04-21 12:34 | 40.11635 | 32.99020 | 3126 ft | 0 kts | 143° |
| 2026-04-21 12:34 | 40.11636 | 32.99019 | 3126 ft | 0 kts | 143° |
| 2026-04-21 12:34 | 40.11637 | 32.99018 | 3126 ft | 0 kts | 143° |
| 2026-04-21 12:35 | 40.11639 | 32.99017 | 3126 ft | 0 kts | 143° |
| 2026-04-21 12:35 | 40.11639 | 32.99016 | 3126 ft | 0 kts | 143° |
| 2026-04-21 12:35 | 40.11648 | 32.99007 | 3126 ft | 4 kts | 143° |
| 2026-04-21 12:35 | 40.11670 | 32.98986 | 3126 ft | 3 kts | 142° |
| 2026-04-21 12:36 | 40.11688 | 32.98966 | 3125 ft | 2 kts | 139° |
| 2026-04-21 12:36 | 40.11695 | 32.98958 | 3125 ft | 0 kts | 137° |
| 2026-04-21 12:37 | 40.11687 | 32.98966 | 3125 ft | 4 kts | 145° |
| 2026-04-21 12:37 | 40.11635 | 32.98991 | 3126 ft | 9 kts | 187° |
| 2026-04-21 12:38 | 40.11574 | 32.98932 | 3125 ft | 13 kts | 230° |
| 2026-04-21 12:38 | 40.11510 | 32.98851 | 3123 ft | 11 kts | 216° |
| 2026-04-21 12:38 | 40.11449 | 32.98791 | 3122 ft | 10 kts | 215° |
| 2026-04-21 12:38 | 40.11444 | 32.98787 | 3122 ft | 10 kts | 215° |
| 2026-04-21 12:39 | 40.11438 | 32.98782 | 3122 ft | 5 kts | 215° |
| 2026-04-21 12:39 | 40.11359 | 32.98708 | 3120 ft | 0 kts | 215° |
| 2026-04-21 12:39 | 40.11342 | 32.98692 | 3120 ft | 15 kts | 215° |
| 2026-04-21 12:40 | 40.11253 | 32.98611 | 3118 ft | 0 kts | 212° |
| 2026-04-21 12:40 | 40.11251 | 32.98609 | 3118 ft | 0 kts | 217° |
| 2026-04-21 12:40 | 40.11251 | 32.98602 | 3118 ft | 1 kts | 289° |
| 2026-04-21 12:40 | 40.11264 | 32.98580 | 3118 ft | 6 kts | 310° |
| 2026-04-21 12:41 | 40.11377 | 32.98567 | 3117 ft | 28 kts | 40° |
| 2026-04-21 12:41 | 40.11512 | 32.98719 | 3120 ft | 26 kts | 37° |
| 2026-04-21 12:41 | 40.11668 | 32.98870 | 3123 ft | 29 kts | 36° |
| 2026-04-21 12:41 | 40.11828 | 32.99022 | 3126 ft | 27 kts | 36° |
| 2026-04-21 12:42 | 40.11973 | 32.99162 | 3129 ft | 25 kts | 36° |
| 2026-04-21 12:42 | 40.12110 | 32.99291 | 3129 ft | 22 kts | 35° |
| 2026-04-21 12:42 | 40.12235 | 32.99410 | 3132 ft | 21 kts | 37° |
| 2026-04-21 12:42 | 40.12350 | 32.99518 | 3133 ft | 19 kts | 38° |
| 2026-04-21 12:43 | 40.12463 | 32.99627 | 3136 ft | 24 kts | 36° |
| 2026-04-21 12:43 | 40.12637 | 32.99795 | 3136 ft | 36 kts | 36° |
| 2026-04-21 12:43 | 40.12867 | 33.00011 | 3136 ft | 45 kts | 37° |
| 2026-04-21 12:43 | 40.13143 | 33.00278 | 3140 ft | 53 kts | 35° |
| 2026-04-21 12:44 | 40.13457 | 33.00575 | 3139 ft | 53 kts | 37° |
| 2026-04-21 12:44 | 40.13736 | 33.00840 | 3139 ft | 46 kts | 37° |
| 2026-04-21 12:44 | 40.13909 | 33.01007 | 3141 ft | 3 kts | 38° |
| 2026-04-21 12:44 | 40.13927 | 33.01025 | 3141 ft | 2 kts | 38° |
| 2026-04-21 12:45 | 40.13938 | 33.01037 | 3141 ft | 1 kts | 37° |
| 2026-04-21 12:45 | 40.13943 | 33.01041 | 3141 ft | 0 kts | 37° |
| 2026-04-21 12:45 | 40.13945 | 33.01043 | 3141 ft | 0 kts | 37° |
| 2026-04-21 12:45 | 40.13947 | 33.01044 | 3141 ft | 0 kts | 37° |
| 2026-04-21 12:46 | 40.13948 | 33.01046 | 3141 ft | 0 kts | 37° |
| 2026-04-21 12:46 | 40.13950 | 33.01048 | 3141 ft | 0 kts | 37° |
| 2026-04-21 12:46 | 40.13952 | 33.01050 | 3141 ft | 0 kts | 37° |
| 2026-04-21 12:46 | 40.13954 | 33.01052 | 3141 ft | 0 kts | 37° |
| 2026-04-21 12:47 | 40.13956 | 33.01054 | 3141 ft | 0 kts | 37° |
| 2026-04-21 12:47 | 40.13957 | 33.01055 | 3141 ft | 0 kts | 37° |
| 2026-04-21 12:47 | 40.13959 | 33.01057 | 3141 ft | 0 kts | 37° |
| 2026-04-21 12:47 | 40.13983 | 33.01071 | 3141 ft | 10 kts | 15° |
| 2026-04-21 12:48 | 40.14073 | 33.01041 | 3140 ft | 14 kts | 319° |
| 2026-04-21 12:48 | 40.14103 | 33.00919 | 3137 ft | 13 kts | 259° |
| 2026-04-21 12:48 | 40.14065 | 33.00849 | 3138 ft | 0 kts | 219° |
| 2026-04-21 12:49 | 40.14027 | 33.00810 | 3138 ft | 27 kts | 217° |
| 2026-04-21 12:49 | 40.13651 | 33.00455 | 3136 ft | 107 kts | 216° |
| 2026-04-21 12:49 | 40.12858 | 32.99702 | 3130 ft | 164 kts | 214° |
| 2026-04-21 12:50 | 40.11919 | 32.98875 | 3157 ft | 163 kts | 212° |
| 2026-04-21 12:50 | 40.10897 | 32.98155 | 3268 ft | 171 kts | 202° |
| 2026-04-21 12:50 | 40.09781 | 32.97525 | 3460 ft | 179 kts | 202° |
| 2026-04-21 12:50 | 40.08649 | 32.97023 | 3961 ft | 172 kts | 199° |
| 2026-04-21 12:51 | 40.07416 | 32.96378 | 3991 ft | 207 kts | 203° |
| 2026-04-21 12:51 | 40.06175 | 32.95406 | 4548 ft | 216 kts | 227° |
| 2026-04-21 12:51 | 40.05318 | 32.93682 | 4793 ft | 236 kts | 240° |
| 2026-04-21 12:51 | 40.04366 | 32.91840 | 5090 ft | 254 kts | 229° |
| 2026-04-21 12:52 | 40.03120 | 32.90240 | 5939 ft | 253 kts | 220° |
| 2026-04-21 12:52 | 40.01641 | 32.89010 | 6720 ft | 255 kts | 202° |
| 2026-04-21 12:52 | 39.99922 | 32.88482 | 7419 ft | 259 kts | 181° |
| 2026-04-21 12:52 | 39.98094 | 32.88781 | 7801 ft | 277 kts | 165° |
| 2026-04-21 12:53 | 39.96265 | 32.89537 | 8449 ft | 282 kts | 161° |
| 2026-04-21 12:53 | 39.94379 | 32.90394 | 9118 ft | 288 kts | 161° |
| 2026-04-21 12:53 | 39.92505 | 32.91214 | 9821 ft | 290 kts | 162° |
| 2026-04-21 12:53 | 39.90570 | 32.92028 | 10344 ft | 300 kts | 162° |
| 2026-04-21 12:54 | 39.88480 | 32.92888 | 10415 ft | 326 kts | 162° |
| 2026-04-21 12:54 | 39.86273 | 32.93788 | 10792 ft | 339 kts | 162° |
| 2026-04-21 12:54 | 39.84015 | 32.94705 | 11366 ft | 345 kts | 162° |
| 2026-04-21 12:54 | 39.81727 | 32.95638 | 12041 ft | 347 kts | 161° |
| 2026-04-21 12:55 | 39.79522 | 32.96888 | 12662 ft | 351 kts | 149° |
| 2026-04-21 12:55 | 39.77596 | 32.98835 | 13312 ft | 354 kts | 133° |
| 2026-04-21 12:55 | 39.76070 | 33.01342 | 13995 ft | 356 kts | 124° |
| 2026-04-21 12:55 | 39.74698 | 33.04024 | 14583 ft | 361 kts | 123° |
| 2026-04-21 12:56 | 39.73321 | 33.06804 | 14987 ft | 369 kts | 123° |
| 2026-04-21 12:56 | 39.71944 | 33.09568 | 14991 ft | 366 kts | 123° |
| 2026-04-21 12:56 | 39.70554 | 33.12340 | 15002 ft | 361 kts | 123° |
| 2026-04-21 12:56 | 39.69175 | 33.15073 | 15145 ft | 365 kts | 123° |
| 2026-04-21 12:57 | 39.67803 | 33.17782 | 15834 ft | 366 kts | 123° |
| 2026-04-21 12:57 | 39.66396 | 33.20555 | 16373 ft | 371 kts | 123° |
| 2026-04-21 12:57 | 39.64969 | 33.23363 | 16999 ft | 373 kts | 123° |
| 2026-04-21 12:57 | 39.63533 | 33.26183 | 17561 ft | 376 kts | 123° |
| 2026-04-21 12:58 | 39.62101 | 33.28993 | 18117 ft | 379 kts | 123° |
| 2026-04-21 12:58 | 39.60645 | 33.31848 | 18663 ft | 383 kts | 123° |
| 2026-04-21 12:58 | 39.59174 | 33.34750 | 19197 ft | 386 kts | 122° |
| 2026-04-21 12:58 | 39.57806 | 33.37731 | 19716 ft | 389 kts | 118° |
| 2026-04-21 12:59 | 39.56660 | 33.40904 | 20223 ft | 391 kts | 112° |
| 2026-04-21 12:59 | 39.55634 | 33.44198 | 20727 ft | 394 kts | 111° |
| 2026-04-21 12:59 | 39.54646 | 33.47504 | 21199 ft | 397 kts | 110° |
| 2026-04-21 12:59 | 39.53665 | 33.50837 | 21673 ft | 400 kts | 110° |
| 2026-04-21 13:00 | 39.52683 | 33.54203 | 22126 ft | 403 kts | 110° |
| 2026-04-21 13:00 | 39.51692 | 33.57608 | 22580 ft | 405 kts | 110° |
| 2026-04-21 13:00 | 39.50693 | 33.61051 | 23016 ft | 408 kts | 110° |
| 2026-04-21 13:00 | 39.49705 | 33.64461 | 23443 ft | 411 kts | 110° |
| 2026-04-21 13:01 | 39.48692 | 33.67953 | 23861 ft | 413 kts | 111° |
| 2026-04-21 13:01 | 39.47683 | 33.71408 | 24267 ft | 416 kts | 112° |
| 2026-04-21 13:01 | 39.46516 | 33.74890 | 24667 ft | 418 kts | 116° |
| 2026-04-21 13:01 | 39.45153 | 33.78188 | 25053 ft | 421 kts | 121° |
| 2026-04-21 13:02 | 39.43496 | 33.81299 | 25427 ft | 423 kts | 127° |
| 2026-04-21 13:02 | 39.41680 | 33.84269 | 25807 ft | 425 kts | 129° |
| 2026-04-21 13:02 | 39.37897 | 33.90237 | 26522 ft | 430 kts | 129° |
| 2026-04-21 13:03 | 39.36012 | 33.93183 | 26858 ft | 432 kts | 129° |
| 2026-04-21 13:03 | 39.34076 | 33.96201 | 27205 ft | 434 kts | 130° |
| 2026-04-21 13:03 | 39.32144 | 33.99205 | 27531 ft | 437 kts | 130° |
| 2026-04-21 13:03 | 39.30225 | 34.02185 | 27856 ft | 439 kts | 130° |
| 2026-04-21 13:04 | 39.28268 | 34.05219 | 28169 ft | 441 kts | 130° |
| 2026-04-21 13:04 | 39.26289 | 34.08282 | 28485 ft | 443 kts | 130° |
| 2026-04-21 13:04 | 39.24328 | 34.11315 | 28783 ft | 445 kts | 130° |
| 2026-04-21 13:04 | 39.22336 | 34.14390 | 29084 ft | 447 kts | 130° |
| 2026-04-21 13:05 | 39.20360 | 34.17438 | 29369 ft | 449 kts | 130° |
| 2026-04-21 13:05 | 39.18348 | 34.20538 | 29655 ft | 451 kts | 130° |
| 2026-04-21 13:05 | 39.16341 | 34.23633 | 29930 ft | 453 kts | 129° |
| 2026-04-21 13:05 | 39.14402 | 34.26858 | 30207 ft | 455 kts | 125° |
| 2026-04-21 13:06 | 39.12691 | 34.30236 | 30538 ft | 455 kts | 121° |
| 2026-04-21 13:06 | 39.11061 | 34.33689 | 30892 ft | 454 kts | 121° |
| 2026-04-21 13:06 | 39.09233 | 34.36993 | 31211 ft | 454 kts | 129° |
| 2026-04-21 13:06 | 39.07158 | 34.40058 | 31602 ft | 452 kts | 131° |
| 2026-04-21 13:07 | 39.05077 | 34.43062 | 31921 ft | 452 kts | 131° |
| 2026-04-21 13:07 | 39.03000 | 34.46109 | 32260 ft | 451 kts | 130° |
| 2026-04-21 13:07 | 39.00971 | 34.49127 | 32585 ft | 450 kts | 130° |
| 2026-04-21 13:07 | 38.98931 | 34.52189 | 32911 ft | 450 kts | 130° |
| 2026-04-21 13:08 | 38.96907 | 34.55248 | 33227 ft | 449 kts | 130° |
| 2026-04-21 13:08 | 38.94897 | 34.58298 | 33536 ft | 448 kts | 130° |
| 2026-04-21 13:08 | 38.92905 | 34.61330 | 33837 ft | 447 kts | 130° |
| 2026-04-21 13:08 | 38.90918 | 34.64359 | 34130 ft | 447 kts | 129° |
| 2026-04-21 13:09 | 38.88905 | 34.67432 | 34422 ft | 446 kts | 130° |
| 2026-04-21 13:09 | 38.86913 | 34.70473 | 34705 ft | 445 kts | 130° |
| 2026-04-21 13:09 | 38.84936 | 34.73492 | 34960 ft | 445 kts | 130° |
| 2026-04-21 13:09 | 38.82937 | 34.76544 | 35003 ft | 448 kts | 130° |
| 2026-04-21 13:10 | 38.78951 | 34.82624 | 34999 ft | 447 kts | 130° |
| 2026-04-21 13:10 | 38.74971 | 34.88687 | 35000 ft | 444 kts | 130° |
| 2026-04-21 13:11 | 38.70999 | 34.94728 | 35000 ft | 445 kts | 130° |
| 2026-04-21 13:11 | 38.67000 | 35.00799 | 35000 ft | 446 kts | 130° |
| 2026-04-21 13:12 | 38.63035 | 35.06809 | 34999 ft | 446 kts | 130° |
| 2026-04-21 13:12 | 38.59040 | 35.12853 | 35000 ft | 445 kts | 130° |
| 2026-04-21 13:13 | 38.55056 | 35.18867 | 35000 ft | 445 kts | 130° |
| 2026-04-21 13:13 | 38.51048 | 35.24876 | 35000 ft | 445 kts | 131° |
| 2026-04-21 13:14 | 38.46979 | 35.30830 | 35000 ft | 445 kts | 131° |
| 2026-04-21 13:14 | 38.42910 | 35.36768 | 35000 ft | 445 kts | 131° |
| 2026-04-21 13:15 | 38.38850 | 35.42685 | 35000 ft | 445 kts | 131° |
| 2026-04-21 13:15 | 38.34768 | 35.48625 | 35000 ft | 445 kts | 131° |
| 2026-04-21 13:16 | 38.30711 | 35.54520 | 35000 ft | 445 kts | 131° |
| 2026-04-21 13:16 | 38.26639 | 35.60426 | 35000 ft | 445 kts | 131° |
| 2026-04-21 13:17 | 38.22540 | 35.66360 | 34999 ft | 445 kts | 131° |
| 2026-04-21 13:17 | 38.18479 | 35.72228 | 34999 ft | 445 kts | 131° |
| 2026-04-21 13:18 | 38.14394 | 35.78121 | 34999 ft | 445 kts | 131° |
| 2026-04-21 13:18 | 38.10291 | 35.84028 | 34999 ft | 445 kts | 131° |
| 2026-04-21 13:19 | 38.06213 | 35.89890 | 34999 ft | 445 kts | 131° |
| 2026-04-21 13:19 | 38.02126 | 35.95754 | 34999 ft | 445 kts | 131° |
| 2026-04-21 13:20 | 37.98025 | 36.01629 | 34751 ft | 442 kts | 131° |
| 2026-04-21 13:20 | 37.96005 | 36.04517 | 34027 ft | 443 kts | 131° |
| 2026-04-21 13:20 | 37.93966 | 36.07431 | 33308 ft | 444 kts | 131° |
| 2026-04-21 13:21 | 37.91917 | 36.10356 | 32619 ft | 443 kts | 131° |
| 2026-04-21 13:21 | 37.89867 | 36.13280 | 31919 ft | 443 kts | 131° |
| 2026-04-21 13:21 | 37.87836 | 36.16175 | 31207 ft | 443 kts | 131° |
| 2026-04-21 13:21 | 37.85816 | 36.19050 | 30517 ft | 441 kts | 131° |
| 2026-04-21 13:22 | 37.83797 | 36.21920 | 30061 ft | 434 kts | 132° |
| 2026-04-21 13:22 | 37.81572 | 36.24321 | 30148 ft | 413 kts | 149° |
| 2026-04-21 13:22 | 37.78970 | 36.25694 | 30163 ft | 395 kts | 168° |
| 2026-04-21 13:22 | 37.76307 | 36.25906 | 30163 ft | 380 kts | 187° |
| 2026-04-21 13:23 | 37.73816 | 36.24993 | 30166 ft | 373 kts | 207° |
| 2026-04-21 13:23 | 37.71723 | 36.23055 | 30169 ft | 379 kts | 227° |
| 2026-04-21 13:23 | 37.70253 | 36.20306 | 30168 ft | 384 kts | 247° |
| 2026-04-21 13:23 | 37.69479 | 36.17107 | 30173 ft | 385 kts | 257° |
| 2026-04-21 13:24 | 37.68332 | 36.10566 | 30162 ft | 380 kts | 256° |
| 2026-04-21 13:24 | 37.67439 | 36.07444 | 30153 ft | 378 kts | 239° |
| 2026-04-21 13:24 | 37.65803 | 36.04866 | 30169 ft | 379 kts | 221° |
| 2026-04-21 13:25 | 37.63649 | 36.02966 | 30166 ft | 381 kts | 206° |
| 2026-04-21 13:25 | 37.61202 | 36.01827 | 30160 ft | 377 kts | 191° |
| 2026-04-21 13:25 | 37.58594 | 36.01576 | 30162 ft | 377 kts | 173° |
| 2026-04-21 13:25 | 37.56070 | 36.02433 | 30165 ft | 377 kts | 153° |
| 2026-04-21 13:26 | 37.53917 | 36.04327 | 30168 ft | 378 kts | 135° |
| 2026-04-21 13:26 | 37.52230 | 36.06837 | 30171 ft | 379 kts | 126° |
| 2026-04-21 13:26 | 37.49453 | 36.12378 | 29529 ft | 376 kts | 120° |
| 2026-04-21 13:27 | 37.48159 | 36.15264 | 28617 ft | 379 kts | 119° |
| 2026-04-21 13:27 | 37.46910 | 36.18147 | 27716 ft | 381 kts | 118° |
| 2026-04-21 13:27 | 37.45669 | 36.21105 | 26803 ft | 382 kts | 117° |
| 2026-04-21 13:27 | 37.44456 | 36.24060 | 25887 ft | 383 kts | 117° |
| 2026-04-21 13:28 | 37.43267 | 36.27003 | 24980 ft | 383 kts | 116° |
| 2026-04-21 13:28 | 37.42068 | 36.29999 | 24057 ft | 382 kts | 116° |
| 2026-04-21 13:28 | 37.40895 | 36.32949 | 23146 ft | 381 kts | 116° |
| 2026-04-21 13:28 | 37.39728 | 36.35892 | 22329 ft | 377 kts | 116° |
| 2026-04-21 13:29 | 37.38573 | 36.38812 | 21714 ft | 367 kts | 116° |
| 2026-04-21 13:29 | 37.37456 | 36.41636 | 21278 ft | 354 kts | 116° |
| 2026-04-21 13:29 | 37.36384 | 36.44351 | 20893 ft | 341 kts | 116° |
| 2026-04-21 13:29 | 37.35355 | 36.46956 | 20528 ft | 329 kts | 116° |
| 2026-04-21 13:30 | 37.34346 | 36.49508 | 20165 ft | 319 kts | 116° |
| 2026-04-21 13:30 | 37.33384 | 36.51942 | 19818 ft | 309 kts | 116° |
| 2026-04-21 13:30 | 37.32447 | 36.54313 | 19480 ft | 300 kts | 116° |
| 2026-04-21 13:30 | 37.31519 | 36.56660 | 19162 ft | 303 kts | 116° |
| 2026-04-21 13:31 | 37.30571 | 36.59055 | 18821 ft | 309 kts | 116° |
| 2026-04-21 13:31 | 37.29612 | 36.61476 | 18465 ft | 308 kts | 116° |
| 2026-04-21 13:31 | 37.28666 | 36.63862 | 18126 ft | 307 kts | 116° |
| 2026-04-21 13:31 | 37.27713 | 36.66266 | 17784 ft | 306 kts | 116° |
| 2026-04-21 13:32 | 37.26769 | 36.68643 | 17446 ft | 304 kts | 116° |
| 2026-04-21 13:32 | 37.25838 | 36.70988 | 17114 ft | 303 kts | 116° |
| 2026-04-21 13:32 | 37.24891 | 36.73369 | 16776 ft | 302 kts | 116° |
| 2026-04-21 13:32 | 37.23957 | 36.75717 | 16442 ft | 301 kts | 116° |
| 2026-04-21 13:33 | 37.23036 | 36.78033 | 16113 ft | 299 kts | 116° |
| 2026-04-21 13:33 | 37.22104 | 36.80371 | 15779 ft | 298 kts | 116° |
| 2026-04-21 13:33 | 37.21179 | 36.82693 | 15447 ft | 297 kts | 116° |
| 2026-04-21 13:33 | 37.20261 | 36.84993 | 15120 ft | 296 kts | 116° |
| 2026-04-21 13:34 | 37.19345 | 36.87288 | 14792 ft | 295 kts | 116° |
| 2026-04-21 13:34 | 37.18425 | 36.89592 | 14464 ft | 293 kts | 116° |
| 2026-04-21 13:34 | 37.17520 | 36.91856 | 14140 ft | 292 kts | 116° |
| 2026-04-21 13:34 | 37.16617 | 36.94112 | 13818 ft | 291 kts | 116° |
| 2026-04-21 13:35 | 37.15706 | 36.96388 | 13492 ft | 290 kts | 116° |
| 2026-04-21 13:35 | 37.14808 | 36.98629 | 13171 ft | 289 kts | 116° |
| 2026-04-21 13:35 | 37.13912 | 37.00864 | 12851 ft | 288 kts | 116° |
| 2026-04-21 13:35 | 37.13013 | 37.03105 | 12530 ft | 287 kts | 116° |
| 2026-04-21 13:36 | 37.12112 | 37.05348 | 12210 ft | 286 kts | 116° |
| 2026-04-21 13:36 | 37.11227 | 37.07551 | 11892 ft | 285 kts | 116° |
| 2026-04-21 13:36 | 37.10342 | 37.09753 | 11576 ft | 283 kts | 116° |
| 2026-04-21 13:36 | 37.09457 | 37.11951 | 11259 ft | 282 kts | 116° |
| 2026-04-21 13:37 | 37.08571 | 37.14152 | 10942 ft | 281 kts | 116° |
| 2026-04-21 13:37 | 37.07703 | 37.16308 | 10633 ft | 280 kts | 116° |
| 2026-04-21 13:37 | 37.06819 | 37.18499 | 10316 ft | 279 kts | 116° |
| 2026-04-21 13:37 | 37.05949 | 37.20657 | 10005 ft | 278 kts | 116° |
| 2026-04-21 13:38 | 37.05075 | 37.22821 | 9683 ft | 277 kts | 116° |
| 2026-04-21 13:38 | 37.04210 | 37.24962 | 9362 ft | 277 kts | 116° |
| 2026-04-21 13:38 | 37.03345 | 37.27102 | 9043 ft | 276 kts | 116° |
| 2026-04-21 13:38 | 37.02478 | 37.29245 | 8722 ft | 275 kts | 116° |
| 2026-04-21 13:39 | 37.01614 | 37.31379 | 8403 ft | 275 kts | 116° |
| 2026-04-21 13:39 | 37.00756 | 37.33497 | 8086 ft | 274 kts | 116° |
| 2026-04-21 13:39 | 36.99893 | 37.35626 | 7766 ft | 273 kts | 116° |
| 2026-04-21 13:39 | 36.99036 | 37.37738 | 7449 ft | 272 kts | 116° |
| 2026-04-21 13:40 | 36.98188 | 37.39828 | 7118 ft | 267 kts | 116° |
| 2026-04-21 13:40 | 36.97371 | 37.41839 | 6861 ft | 253 kts | 116° |
| 2026-04-21 13:40 | 36.96596 | 37.43745 | 6537 ft | 239 kts | 116° |
| 2026-04-21 13:40 | 36.95860 | 37.45555 | 6252 ft | 226 kts | 116° |
| 2026-04-21 13:41 | 36.95223 | 37.47289 | 6004 ft | 215 kts | 108° |
| 2026-04-21 13:41 | 36.94787 | 37.49034 | 5782 ft | 208 kts | 107° |
| 2026-04-21 13:41 | 36.94373 | 37.50742 | 5555 ft | 203 kts | 106° |
| 2026-04-21 13:41 | 36.93977 | 37.52436 | 5315 ft | 199 kts | 106° |
| 2026-04-21 13:42 | 36.93600 | 37.54073 | 5085 ft | 196 kts | 105° |
| 2026-04-21 13:42 | 36.93225 | 37.55708 | 4854 ft | 196 kts | 105° |
| 2026-04-21 13:42 | 36.92852 | 37.57332 | 4621 ft | 193 kts | 105° |
| 2026-04-21 13:42 | 36.92481 | 37.58949 | 4414 ft | 193 kts | 105° |
| 2026-04-21 13:43 | 36.92115 | 37.60576 | 4276 ft | 193 kts | 102° |
| 2026-04-21 13:43 | 36.92065 | 37.62188 | 4022 ft | 184 kts | 76° |
| 2026-04-21 13:43 | 36.92669 | 37.63546 | 4000 ft | 178 kts | 41° |
| 2026-04-21 13:43 | 36.93784 | 37.64214 | 4010 ft | 184 kts | 5° |
| 2026-04-21 13:44 | 36.95015 | 37.63913 | 3994 ft | 183 kts | 328° |
| 2026-04-21 13:44 | 36.95845 | 37.62745 | 4000 ft | 183 kts | 290° |
| 2026-04-21 13:44 | 36.95938 | 37.61164 | 4011 ft | 183 kts | 257° |
| 2026-04-21 13:44 | 36.95463 | 37.59694 | 4029 ft | 179 kts | 239° |
| 2026-04-21 13:45 | 36.94817 | 37.58483 | 3994 ft | 157 kts | 234° |
| 2026-04-21 13:45 | 36.94202 | 37.57388 | 3863 ft | 155 kts | 235° |
| 2026-04-21 13:45 | 36.93627 | 37.56249 | 3355 ft | 153 kts | 242° |
| 2026-04-21 13:45 | 36.93325 | 37.55028 | 3037 ft | 145 kts | 266° |
| 2026-04-21 13:46 | 36.93432 | 37.53771 | 3128 ft | 151 kts | 284° |
| 2026-04-21 13:46 | 36.93764 | 37.52442 | 2978 ft | 170 kts | 288° |
| 2026-04-21 13:46 | 36.94112 | 37.51040 | 2515 ft | 165 kts | 283° |
| 2026-04-21 13:46 | 36.94398 | 37.49667 | 2413 ft | 151 kts | 277° |
| 2026-04-21 13:47 | 36.94406 | 37.48795 | 2318 ft | 46 kts | 225° |
| 2026-04-21 13:47 | 36.94375 | 37.48750 | 2318 ft | 0 kts | 238° |